Time;durP1;ratioP1;P1;durP2;ratioP2;P2;SDS_P1;SDS_P2;PMS_P1;PMS_P2;Temp;Humidity;BMP_temperature;BMP_pressure;BME280_temperature;BME280_humidity;BME280_pressure;Samples;Min_cycle;Max_cycle;Signal;HPM_P1;HPM_P2
2022/01/10 00:02:04;;;;;;;46.85;26.25;;;;;;;-2.57;79.50;100204.03;5075171;28;20112;-54
2022/01/10 00:04:30;;;;;;;48.10;28.60;;;;;;;-2.62;79.50;100210.75;5074798;28;20483;-54
2022/01/10 00:06:55;;;;;;;51.47;29.80;;;;;;;-2.63;79.17;100206.44;5091834;28;20040;-55
2022/01/10 00:09:21;;;;;;;48.03;25.05;;;;;;;-2.67;79.19;100211.44;5095549;28;20091;-53
2022/01/10 00:11:46;;;;;;;50.53;27.42;;;;;;;-2.74;78.84;100221.56;5092983;28;20042;-53
2022/01/10 00:14:12;;;;;;;43.65;24.52;;;;;;;-2.72;79.22;100222.47;5095335;28;20040;-52
2022/01/10 00:16:37;;;;;;;47.67;28.13;;;;;;;-2.74;78.97;100228.41;5093902;28;20040;-55
2022/01/10 00:19:03;;;;;;;55.75;32.15;;;;;;;-2.78;78.42;100230.00;5094823;28;20429;-52
2022/01/10 00:21:28;;;;;;;64.10;36.30;;;;;;;-2.80;78.22;100235.94;5089837;28;20024;-54
2022/01/10 00:23:54;;;;;;;59.67;31.77;;;;;;;-2.83;78.04;100228.13;5094982;28;20459;-53
2022/01/10 00:26:19;;;;;;;68.97;37.40;;;;;;;-2.95;78.40;100236.38;5093288;28;20032;-52
2022/01/10 00:28:45;;;;;;;59.22;32.35;;;;;;;-2.98;78.12;100225.97;5093615;28;20115;-54
2022/01/10 00:31:10;;;;;;;63.28;34.05;;;;;;;-2.97;78.29;100244.00;5094737;28;20036;-54
2022/01/10 00:33:36;;;;;;;68.18;37.45;;;;;;;-3.01;78.23;100239.59;5094691;28;20028;-54
2022/01/10 00:36:02;;;;;;;59.92;35.22;;;;;;;-3.03;77.94;100242.97;5086034;28;20048;-54
2022/01/10 00:38:27;;;;;;;69.30;39.15;;;;;;;-3.05;78.34;100250.63;5088818;28;20118;-57
2022/01/10 00:40:52;;;;;;;70.93;39.25;;;;;;;-3.14;77.92;100254.63;5094566;28;20031;-52
2022/01/10 00:43:29;;;;;;;64.82;36.22;;;;;;;-3.14;78.38;100272.59;5093730;28;20078;-51
2022/01/10 00:45:54;;;;;;;57.28;33.17;;;;;;;-3.18;79.00;100268.19;5093112;28;20494;-53
2022/01/10 00:48:20;;;;;;;59.33;33.40;;;;;;;-3.20;79.33;100275.84;5094466;28;20036;-55
2022/01/10 00:50:45;;;;;;;63.42;35.20;;;;;;;-3.20;78.93;100280.09;5093837;28;20131;-52
2022/01/10 00:53:11;;;;;;;55.08;30.58;;;;;;;-3.20;78.86;100282.69;5094410;28;20157;-53
2022/01/10 00:55:36;;;;;;;60.58;32.70;;;;;;;-3.23;78.86;100283.47;5093308;28;20407;-52
2022/01/10 00:58:01;;;;;;;46.75;27.13;;;;;;;-3.25;78.76;100275.69;5094346;28;20032;-52
2022/01/10 01:00:27;;;;;;;50.40;28.80;;;;;;;-3.27;78.75;100285.06;5094175;28;20031;-50
2022/01/10 01:02:52;;;;;;;45.55;27.75;;;;;;;-3.29;78.57;100281.56;5091922;28;20042;-52
2022/01/10 01:05:20;;;;;;;64.07;32.53;;;;;;;-3.29;78.02;100283.25;5094512;28;20501;-56
2022/01/10 01:07:46;;;;;;;51.30;29.02;;;;;;;-3.27;78.09;100279.94;5094434;28;20028;-53
2022/01/10 01:13:09;;;;;;;48.33;28.13;;;;;;;-3.29;77.90;100302.13;5094201;28;20441;-55
2022/01/10 01:15:45;;;;;;;51.30;30.90;;;;;;;-3.32;78.48;100304.56;5089049;28;20035;-52
2022/01/10 01:18:19;;;;;;;44.97;27.55;;;;;;;-3.34;78.46;100302.81;5073903;28;20040;-55
2022/01/10 01:24:01;;;;;;;51.72;28.10;;;;;;;-3.27;78.17;100315.91;5073818;28;20039;-51
2022/01/10 01:26:14;;;;;;;53.78;29.00;;;;;;;-3.25;77.72;100309.09;5073962;28;20031;-54
2022/01/10 01:28:40;;;;;;;55.13;32.22;;;;;;;-3.30;77.80;100315.78;5087065;28;20029;-51
2022/01/10 01:31:05;;;;;;;53.50;31.45;;;;;;;-3.26;78.18;100333.06;5093708;28;20455;-53
2022/01/10 01:33:30;;;;;;;48.03;27.45;;;;;;;-3.32;78.27;100332.84;5079151;28;20025;-53
2022/01/10 01:35:56;;;;;;;45.40;25.63;;;;;;;-3.29;78.16;100332.94;5073367;28;20131;-54
2022/01/10 01:38:22;;;;;;;43.30;26.15;;;;;;;-3.24;77.86;100328.81;5073316;28;20036;-55
2022/01/10 01:40:58;;;;;;;42.90;24.40;;;;;;;-3.23;77.72;100338.31;5073360;28;20056;-53
2022/01/10 01:43:23;;;;;;;53.83;29.60;;;;;;;-3.24;77.62;100338.25;5076733;28;20039;-56
2022/01/10 01:45:49;;;;;;;50.42;28.15;;;;;;;-3.28;77.61;100344.97;5093421;28;20430;-53
2022/01/10 01:48:15;;;;;;;46.92;26.77;;;;;;;-3.35;77.99;100355.88;5093479;28;20032;-54
2022/01/10 01:50:40;;;;;;;48.15;25.65;;;;;;;-3.35;77.82;100355.88;5084689;28;20490;-54
2022/01/10 01:53:07;;;;;;;49.03;27.38;;;;;;;-3.39;77.95;100359.19;5093355;28;20051;-51
2022/01/10 01:55:34;;;;;;;56.00;31.33;;;;;;;-3.46;78.10;100359.78;5093678;28;20119;-53
2022/01/10 01:58:00;;;;;;;44.83;26.10;;;;;;;-3.45;78.07;100369.22;5091585;28;20092;-56
2022/01/10 02:00:26;;;;;;;44.60;24.05;;;;;;;-3.58;78.40;100373.06;5091482;28;20036;-53
2022/01/10 02:02:53;;;;;;;45.70;27.70;;;;;;;-3.58;78.25;100378.22;5091995;28;20383;-54
2022/01/10 02:05:19;;;;;;;45.35;26.55;;;;;;;-3.57;78.71;100387.66;5091968;28;20040;-54
2022/01/10 02:07:45;;;;;;;50.58;29.33;;;;;;;-3.60;78.82;100381.53;5093584;28;20094;-55
2022/01/10 02:10:12;;;;;;;49.78;27.98;;;;;;;-3.57;78.85;100386.78;5093557;28;20115;-55
2022/01/10 02:12:38;;;;;;;46.28;25.67;;;;;;;-3.54;78.68;100392.03;5092638;28;20161;-56
2022/01/10 02:15:04;;;;;;;40.20;24.35;;;;;;;-3.54;78.57;100390.34;5093440;28;20144;-53
2022/01/10 02:17:38;;;;;;;46.25;25.77;;;;;;;-3.58;78.72;100400.47;5093149;28;20039;-52
2022/01/10 02:20:05;;;;;;;46.03;25.95;;;;;;;-3.64;79.05;100415.63;5090971;28;20073;-54
2022/01/10 02:22:31;;;;;;;45.00;26.35;;;;;;;-3.61;79.49;100431.16;5088138;28;20032;-52
2022/01/10 02:24:57;;;;;;;46.78;27.98;;;;;;;-3.55;79.57;100424.56;5073218;28;20044;-54
2022/01/10 02:27:24;;;;;;;47.85;28.00;;;;;;;-3.51;79.23;100426.41;5073076;28;20115;-54
2022/01/10 02:29:49;;;;;;;42.72;26.25;;;;;;;-3.49;78.70;100429.91;5086155;28;20024;-53
2022/01/10 02:32:15;;;;;;;47.17;26.05;;;;;;;-3.47;78.52;100435.13;5082838;28;20040;-56
2022/01/10 02:34:41;;;;;;;37.67;21.63;;;;;;;-3.48;78.50;100428.19;5089317;28;20511;-56
2022/01/10 02:37:06;;;;;;;43.90;24.05;;;;;;;-3.49;78.20;100434.16;5072935;28;20078;-55
2022/01/10 02:39:32;;;;;;;33.13;21.02;;;;;;;-3.46;78.26;100444.56;5072952;28;20040;-55
2022/01/10 02:41:57;;;;;;;37.65;23.58;;;;;;;-3.45;78.32;100461.72;5072937;28;20089;-55
2022/01/10 02:44:23;;;;;;;44.47;25.10;;;;;;;-3.50;78.16;100455.53;5072713;28;20427;-55
2022/01/10 02:46:49;;;;;;;49.70;26.92;;;;;;;-3.52;78.40;100464.88;5072858;28;20083;-55
2022/01/10 02:49:26;;;;;;;48.40;25.77;;;;;;;-3.59;78.75;100473.16;5083252;28;20098;-54
2022/01/10 02:51:54;;;;;;;41.95;22.88;;;;;;;-3.55;78.50;100472.47;5096556;28;20036;-54
2022/01/10 02:54:22;;;;;;;43.78;25.98;;;;;;;-3.63;79.03;100479.00;5096623;28;20035;-53
2022/01/10 02:56:51;;;;;;;42.00;23.38;;;;;;;-3.61;79.21;100492.81;5094708;28;20039;-56
2022/01/10 02:59:17;;;;;;;37.58;22.17;;;;;;;-3.62;79.69;100485.94;5096659;28;20562;-54
2022/01/10 03:01:43;;;;;;;42.88;24.42;;;;;;;-3.56;79.35;100483.56;5096274;28;20032;-52
2022/01/10 03:04:09;;;;;;;36.75;22.13;;;;;;;-3.52;78.86;100488.00;5095957;28;20081;-55
2022/01/10 03:06:35;;;;;;;43.47;25.23;;;;;;;-3.52;78.67;100493.13;5096537;28;20063;-56
2022/01/10 03:09:05;;;;;;;38.28;23.60;;;;;;;-3.53;78.62;100486.25;5096608;28;20504;-53
2022/01/10 03:11:34;;;;;;;42.20;23.85;;;;;;;-3.57;78.72;100494.66;5095847;28;20036;-55
2022/01/10 03:14:00;;;;;;;44.20;25.63;;;;;;;-3.59;78.50;100492.06;5096489;28;20024;-52
2022/01/10 03:16:26;;;;;;;40.90;24.55;;;;;;;-3.57;78.27;100492.09;5095054;28;20032;-53
2022/01/10 03:18:51;;;;;;;45.85;26.08;;;;;;;-3.59;78.31;100491.16;5095285;28;20032;-55
2022/01/10 03:21:19;;;;;;;38.40;22.38;;;;;;;-3.55;78.54;100493.91;5096637;28;20028;-55
2022/01/10 03:23:49;;;;;;;45.30;24.85;;;;;;;-3.57;78.75;100504.94;5094228;28;20039;-54
2022/01/10 03:26:14;;;;;;;38.33;23.70;;;;;;;-3.54;78.58;100510.19;5096041;28;20028;-54
2022/01/10 03:28:40;;;;;;;42.45;24.80;;;;;;;-3.57;79.01;100513.50;5092010;28;20090;-52
2022/01/10 03:31:05;;;;;;;45.00;25.40;;;;;;;-3.58;78.77;100506.63;5095950;28;20089;-54
2022/01/10 03:33:31;;;;;;;48.88;26.85;;;;;;;-3.51;78.69;100515.44;5096075;28;20036;-55
2022/01/10 03:35:56;;;;;;;43.47;25.10;;;;;;;-3.50;78.62;100528.34;5079187;28;20049;-55
2022/01/10 03:38:22;;;;;;;37.60;23.15;;;;;;;-3.49;78.34;100529.22;5075933;28;20086;-54
2022/01/10 03:40:47;;;;;;;40.15;23.23;;;;;;;-3.45;77.96;100535.34;5090741;28;20387;-54
2022/01/10 03:43:14;;;;;;;37.33;22.50;;;;;;;-3.47;77.54;100543.00;5092560;28;20463;-55
2022/01/10 03:45:39;;;;;;;46.03;25.52;;;;;;;-3.51;77.41;100543.69;5095682;28;20032;-55
2022/01/10 03:48:05;;;;;;;42.20;25.27;;;;;;;-3.55;77.47;100552.09;5095949;28;20462;-56
2022/01/10 03:50:30;;;;;;;41.08;23.52;;;;;;;-3.54;77.58;100551.31;5085684;28;20036;-53
2022/01/10 03:52:56;;;;;;;41.30;22.33;;;;;;;-3.57;77.85;100569.16;5096068;28;20032;-55
2022/01/10 03:55:21;;;;;;;43.55;24.30;;;;;;;-3.61;77.94;100568.16;5094332;28;20039;-52
2022/01/10 03:57:47;;;;;;;40.55;22.85;;;;;;;-3.58;77.92;100569.97;5093632;28;20028;-52
2022/01/10 04:00:13;;;;;;;39.28;23.00;;;;;;;-3.52;77.60;100575.34;5095690;28;20040;-54
2022/01/10 04:02:42;;;;;;;43.92;26.17;;;;;;;-3.62;77.74;100584.41;5094843;28;20020;-53
2022/01/10 04:05:08;;;;;;;44.88;26.30;;;;;;;-3.61;78.20;100595.53;5094285;28;20040;-53
2022/01/10 04:07:34;;;;;;;40.17;23.80;;;;;;;-3.58;78.17;100606.81;5095463;28;20157;-55
2022/01/10 04:09:59;;;;;;;46.88;25.17;;;;;;;-3.59;77.92;100599.94;5095311;28;20032;-51
2022/01/10 04:12:25;;;;;;;43.80;24.08;;;;;;;-3.60;77.87;100602.44;5093035;28;20036;-51
2022/01/10 04:14:50;;;;;;;45.50;25.23;;;;;;;-3.60;78.02;100617.84;5095734;28;20032;-54
2022/01/10 04:17:16;;;;;;;45.40;26.13;;;;;;;-3.65;78.01;100630.50;5095080;28;20036;-52
2022/01/10 04:19:42;;;;;;;48.40;25.98;;;;;;;-3.67;78.16;100631.25;5080940;28;20041;-54
2022/01/10 04:22:07;;;;;;;39.67;23.75;;;;;;;-3.73;78.48;100635.34;5080014;28;20036;-52
2022/01/10 04:24:33;;;;;;;42.63;24.67;;;;;;;-3.76;78.35;100635.22;5094941;28;20040;-53
2022/01/10 04:26:58;;;;;;;45.38;26.45;;;;;;;-3.75;78.41;100649.81;5078634;28;20510;-55
2022/01/10 04:29:24;;;;;;;42.90;24.60;;;;;;;-3.77;78.50;100646.31;5078083;28;20042;-52
2022/01/10 04:31:49;;;;;;;42.72;24.27;;;;;;;-3.74;78.67;100659.28;5081838;28;20032;-56
2022/01/10 04:34:16;;;;;;;46.35;25.65;;;;;;;-3.74;78.35;100656.69;5086180;28;20052;-54
2022/01/10 04:36:42;;;;;;;46.90;25.63;;;;;;;-3.77;78.13;100651.44;5087248;28;20028;-53
2022/01/10 04:39:07;;;;;;;47.28;25.23;;;;;;;-3.77;78.57;100666.84;5091907;28;20490;-54
2022/01/10 04:41:32;;;;;;;45.75;26.90;;;;;;;-3.76;78.29;100684.00;5094716;28;20089;-53
2022/01/10 04:43:58;;;;;;;37.80;21.33;;;;;;;-3.70;78.00;100673.13;5086297;28;20059;-53
2022/01/10 04:46:23;;;;;;;48.47;25.77;;;;;;;-3.78;78.27;100674.50;5092998;28;20422;-53
2022/01/10 04:48:49;;;;;;;39.78;23.00;;;;;;;-3.70;78.27;100678.25;5083470;28;20033;-52
2022/01/10 04:51:17;;;;;;;40.17;22.63;;;;;;;-3.73;78.45;100683.25;5085239;28;20067;-53
2022/01/10 04:53:48;;;;;;;47.03;26.42;;;;;;;-3.67;78.16;100693.78;5088910;28;20059;-52
2022/01/10 04:56:16;;;;;;;43.20;24.60;;;;;;;-3.73;78.10;100694.41;5094463;28;20431;-54
2022/01/10 04:58:42;;;;;;;37.83;22.42;;;;;;;-3.65;78.20;100709.25;5094540;28;20471;-53
2022/01/10 05:01:09;;;;;;;44.95;26.00;;;;;;;-3.69;77.97;100713.38;5094430;28;20040;-54
2022/01/10 05:03:35;;;;;;;40.33;22.55;;;;;;;-3.68;78.04;100720.25;5091687;28;20562;-55
2022/01/10 05:06:00;;;;;;;38.75;22.92;;;;;;;-3.70;78.19;100718.47;5091126;28;20107;-55
2022/01/10 05:08:26;;;;;;;42.75;24.85;;;;;;;-3.69;77.81;100725.34;5079821;28;20032;-55
2022/01/10 05:10:52;;;;;;;46.65;27.17;;;;;;;-3.67;77.91;100718.56;5091572;28;20031;-55
2022/01/10 05:13:20;;;;;;;45.53;25.40;;;;;;;-3.68;77.96;100735.69;5090818;28;20467;-52
2022/01/10 05:15:49;;;;;;;41.72;23.65;;;;;;;-3.77;78.37;100733.59;5073174;28;20538;-54
2022/01/10 05:18:15;;;;;;;40.35;23.33;;;;;;;-3.77;78.33;100741.31;5079960;28;20036;-55
2022/01/10 05:20:41;;;;;;;45.15;25.50;;;;;;;-3.76;78.45;100727.66;5093609;28;20032;-56
2022/01/10 05:23:06;;;;;;;40.50;24.13;;;;;;;-3.77;78.45;100718.19;5091866;28;20476;-55
2022/01/10 05:25:39;;;;;;;37.88;20.60;;;;;;;-3.77;78.28;100720.78;5084278;28;20059;-54
2022/01/10 05:28:05;;;;;;;;;;;;;;;-3.75;78.34;100721.72;5083590;28;20067;-53
2022/01/10 05:30:31;;;;;;;38.05;21.10;;;;;;;-3.73;78.29;100735.50;5073966;28;20442;-54
2022/01/10 05:32:56;;;;;;;41.97;25.15;;;;;;;-3.69;78.31;100751.03;5073579;28;20093;-55
2022/01/10 05:35:22;;;;;;;38.60;23.10;;;;;;;-3.76;78.38;100761.03;5084516;28;20055;-53
2022/01/10 05:37:47;;;;;;;46.83;26.70;;;;;;;-3.76;78.67;100761.03;5088827;28;20039;-54
2022/01/10 05:40:12;;;;;;;41.90;23.70;;;;;;;-3.70;78.73;100772.41;5092608;28;20119;-55
2022/01/10 05:42:38;;;;;;;43.53;23.88;;;;;;;-3.69;78.90;100772.44;5084221;28;20384;-52
2022/01/10 05:45:04;;;;;;;42.22;23.50;;;;;;;-3.74;78.94;100784.22;5086286;28;20067;-53
2022/01/10 05:47:32;;;;;;;52.55;27.45;;;;;;;-3.76;79.42;100786.72;5073526;28;20068;-54
2022/01/10 05:50:02;;;;;;;45.67;25.00;;;;;;;-3.77;79.14;100795.25;5073470;28;20089;-52
2022/01/10 05:52:27;;;;;;;43.78;23.33;;;;;;;-3.79;79.15;100802.03;5073507;28;20067;-54
2022/01/10 05:54:53;;;;;;;45.97;26.38;;;;;;;-3.82;79.69;100809.59;5074944;28;20044;-54
2022/01/10 05:57:18;;;;;;;47.33;27.10;;;;;;;-3.83;79.80;100820.69;5073766;28;20032;-51
2022/01/10 05:59:44;;;;;;;48.42;26.95;;;;;;;-3.78;79.63;100813.16;5073308;28;20441;-51
2022/01/10 06:02:09;;;;;;;55.90;30.15;;;;;;;-3.79;78.89;100812.28;5073244;28;20111;-54
2022/01/10 06:04:34;;;;;;;58.50;31.23;;;;;;;-3.84;79.38;100826.59;5073086;28;20040;-53
2022/01/10 06:07:00;;;;;;;47.33;27.02;;;;;;;-3.89;79.59;100819.53;5073183;28;20117;-50
2022/01/10 06:09:25;;;;;;;42.65;23.52;;;;;;;-3.83;79.17;100824.91;5073456;28;20353;-51
2022/01/10 06:11:51;;;;;;;50.83;27.98;;;;;;;-3.91;79.88;100827.16;5073434;28;20154;-51
2022/01/10 06:14:16;;;;;;;44.40;25.88;;;;;;;-3.86;79.88;100830.81;5073156;28;20032;-52
2022/01/10 06:16:41;;;;;;;44.38;24.70;;;;;;;-3.86;79.63;100846.22;5073038;28;20047;-50
2022/01/10 06:19:07;;;;;;;51.15;27.40;;;;;;;-3.87;80.05;100852.16;5073079;28;20464;-54
2022/01/10 06:21:32;;;;;;;47.40;25.98;;;;;;;-3.88;79.98;100842.69;5072911;28;20113;-51
2022/01/10 06:23:58;;;;;;;39.28;22.42;;;;;;;-3.90;79.82;100852.03;5072606;28;20464;-53
2022/01/10 06:26:24;;;;;;;45.97;25.15;;;;;;;-3.95;80.31;100863.75;5075338;28;20041;-53
2022/01/10 06:28:49;;;;;;;42.22;24.42;;;;;;;-3.95;80.19;100874.03;5075836;28;20067;-51
2022/01/10 06:31:14;;;;;;;43.90;25.27;;;;;;;-3.91;80.32;100883.66;5076703;28;20422;-51
2022/01/10 06:33:40;;;;;;;44.10;24.42;;;;;;;-3.92;80.88;100887.00;5076607;28;20033;-54
2022/01/10 06:36:08;;;;;;;47.85;26.27;;;;;;;-4.00;80.97;100889.22;5076495;28;20450;-53
2022/01/10 06:38:34;;;;;;;41.30;23.33;;;;;;;-3.95;80.90;100897.13;5076692;28;20033;-51
2022/01/10 06:41:00;;;;;;;49.45;27.63;;;;;;;-3.93;80.65;100913.50;5076780;28;20040;-53
2022/01/10 06:43:25;;;;;;;44.35;25.67;;;;;;;-3.92;80.62;100919.50;5076832;28;20051;-53
2022/01/10 06:45:51;;;;;;;48.17;25.60;;;;;;;-3.92;80.88;100917.81;5076639;28;20422;-52
2022/01/10 06:48:16;;;;;;;60.03;31.42;;;;;;;-3.93;80.79;100918.63;5076646;28;20063;-55
2022/01/10 06:50:46;;;;;;;57.33;30.85;;;;;;;-3.84;80.61;100921.59;5076343;28;20064;-51
2022/01/10 06:53:16;;;;;;;48.33;27.38;;;;;;;-3.80;80.40;100925.19;5076526;28;20032;-53
2022/01/10 06:55:41;;;;;;;41.35;24.70;;;;;;;-3.84;80.63;100931.88;5076511;28;20040;-53
2022/01/10 06:58:07;;;;;;;45.83;26.65;;;;;;;-3.81;80.84;100936.28;5076316;28;20472;-55
2022/01/10 07:00:32;;;;;;;46.30;24.90;;;;;;;-3.75;80.01;100937.44;5076300;28;20041;-54
2022/01/10 07:02:58;;;;;;;47.42;26.33;;;;;;;-3.78;80.00;100950.16;5076174;28;20028;-54
2022/01/10 07:05:23;;;;;;;43.92;24.38;;;;;;;-3.74;79.73;100953.72;5076061;28;20122;-55
2022/01/10 07:07:49;;;;;;;44.92;25.63;;;;;;;-3.74;79.64;100964.88;5075791;28;20044;-54
2022/01/10 07:10:14;;;;;;;48.83;26.90;;;;;;;-3.75;79.46;100963.13;5075502;28;20041;-53
2022/01/10 07:12:39;;;;;;;39.00;22.13;;;;;;;-3.76;79.24;100974.19;5076133;28;20032;-53
2022/01/10 07:15:06;;;;;;;44.35;26.17;;;;;;;-3.84;79.36;100975.53;5074750;28;20035;-54
2022/01/10 07:17:32;;;;;;;50.63;29.10;;;;;;;-3.87;79.56;100974.50;5083601;28;20044;-54
2022/01/10 07:19:58;;;;;;;47.65;28.05;;;;;;;-3.89;80.12;100982.16;5075885;28;20036;-52
2022/01/10 07:22:23;;;;;;;48.47;27.23;;;;;;;-3.85;80.18;100996.88;5074645;28;20028;-54
2022/01/10 07:24:49;;;;;;;46.55;25.98;;;;;;;-3.74;79.83;101000.84;5090558;28;20380;-55
2022/01/10 07:27:14;;;;;;;55.20;29.65;;;;;;;-3.75;79.63;100996.53;5094181;28;20032;-52
2022/01/10 07:29:39;;;;;;;54.42;29.75;;;;;;;-3.70;79.38;101000.97;5076088;28;20384;-54
2022/01/10 07:32:06;;;;;;;48.75;27.40;;;;;;;-3.59;78.96;101004.88;5074305;28;20032;-55
2022/01/10 07:34:31;;;;;;;51.42;29.45;;;;;;;-3.57;78.53;101016.13;5094633;28;20060;-52
2022/01/10 07:36:56;;;;;;;40.25;24.15;;;;;;;-3.54;78.51;101013.72;5095019;28;20468;-54
2022/01/10 07:39:23;;;;;;;50.58;27.48;;;;;;;-3.51;78.52;101016.38;5095551;28;20040;-55
2022/01/10 07:41:49;;;;;;;47.40;28.00;;;;;;;-3.50;78.38;101020.75;5095838;28;20028;-55
2022/01/10 07:44:14;;;;;;;50.63;27.30;;;;;;;-3.44;78.18;101020.13;5095626;28;20115;-54
2022/01/10 07:46:40;;;;;;;52.30;28.35;;;;;;;-3.39;77.91;101024.69;5095620;28;20472;-54
2022/01/10 07:49:05;;;;;;;51.28;28.70;;;;;;;-3.33;77.60;101042.94;5095504;28;20024;-56
2022/01/10 07:51:30;;;;;;;48.45;27.58;;;;;;;-3.33;77.19;101037.78;5095775;28;20040;-55
2022/01/10 07:53:57;;;;;;;50.80;28.85;;;;;;;-3.26;77.16;101046.66;5095352;28;20074;-55
2022/01/10 07:56:23;;;;;;;54.35;30.13;;;;;;;-3.23;77.22;101052.81;5095564;28;20058;-55
2022/01/10 07:58:50;;;;;;;54.05;28.40;;;;;;;-3.16;77.12;101053.06;5095395;28;20081;-55
2022/01/10 08:01:17;;;;;;;51.13;27.45;;;;;;;-3.11;76.92;101057.63;5088570;28;20040;-54
2022/01/10 08:03:43;;;;;;;42.67;25.35;;;;;;;-2.96;76.51;101054.81;5076955;28;20047;-57
2022/01/10 08:06:08;;;;;;;39.08;23.77;;;;;;;-2.94;76.59;101060.94;5086001;28;20036;-55
2022/01/10 08:08:34;;;;;;;43.13;23.63;;;;;;;-2.88;76.16;101068.91;5082527;28;20120;-54
2022/01/10 08:10:59;;;;;;;38.80;23.05;;;;;;;-2.94;76.83;101084.06;5087624;28;20395;-54
2022/01/10 08:13:25;;;;;;;37.42;21.88;;;;;;;-2.84;76.83;101078.50;5091974;28;20036;-51
2022/01/10 08:15:50;;;;;;;42.70;23.58;;;;;;;-2.81;76.91;101085.47;5092864;28;20036;-51
2022/01/10 08:18:17;;;;;;;35.20;19.33;;;;;;;-2.79;77.12;101083.88;5095069;28;20033;-51
2022/01/10 08:20:42;;;;;;;35.47;20.40;;;;;;;-2.69;77.21;101092.84;5095440;28;20036;-54
2022/01/10 08:23:08;;;;;;;34.63;18.65;;;;;;;-2.62;76.71;101107.75;5095070;28;20379;-55
2022/01/10 08:25:34;;;;;;;33.05;19.73;;;;;;;-2.56;76.48;101103.72;5095038;28;20460;-55
2022/01/10 08:27:59;;;;;;;35.38;20.23;;;;;;;-2.47;76.41;101121.28;5095045;28;20032;-52
2022/01/10 08:30:25;;;;;;;35.50;19.73;;;;;;;-2.50;76.44;101116.88;5095077;28;20036;-55
2022/01/10 08:32:50;;;;;;;32.80;19.65;;;;;;;-2.42;76.25;101124.03;5096349;28;20448;-54
2022/01/10 08:35:18;;;;;;;33.63;20.83;;;;;;;-2.34;76.58;101127.81;5096027;28;20060;-52
2022/01/10 08:37:43;;;;;;;38.65;21.55;;;;;;;-2.26;76.27;101141.88;5093799;28;20558;-56
2022/01/10 08:40:11;;;;;;;35.97;19.88;;;;;;;-2.11;75.95;101142.53;5095085;28;20138;-53
2022/01/10 08:42:37;;;;;;;35.08;20.02;;;;;;;-2.07;75.79;101140.97;5094773;28;20043;-55
2022/01/10 08:45:03;;;;;;;39.53;21.65;;;;;;;-1.93;75.34;101142.41;5094559;28;20028;-53
2022/01/10 08:47:29;;;;;;;36.33;21.80;;;;;;;-1.93;75.70;101147.56;5094576;28;20521;-55
2022/01/10 08:49:55;;;;;;;41.78;24.33;;;;;;;-1.75;74.87;101155.16;5094557;28;20051;-56
2022/01/10 08:52:21;;;;;;;42.25;25.98;;;;;;;-1.66;74.77;101157.22;5094724;28;20107;-55
2022/01/10 08:54:48;;;;;;;39.67;23.92;;;;;;;-1.51;74.47;101163.00;5094564;28;20157;-55
2022/01/10 08:57:14;;;;;;;45.15;26.75;;;;;;;-1.42;74.09;101163.34;5094451;28;20115;-54
2022/01/10 08:59:40;;;;;;;36.15;21.10;;;;;;;-1.35;74.14;101169.63;5094438;28;20483;-51
2022/01/10 09:02:05;;;;;;;36.08;21.98;;;;;;;-1.31;74.01;101180.13;5094592;28;20032;-55
2022/01/10 09:04:31;;;;;;;30.90;17.48;;;;;;;-1.15;73.76;101175.56;5094479;28;20047;-56
2022/01/10 09:06:58;;;;;;;34.88;20.60;;;;;;;-1.06;73.35;101178.47;5085606;28;20024;-54
2022/01/10 09:09:23;;;;;;;58.28;29.65;;;;;;;-1.01;73.10;101185.56;5093214;28;20036;-56
2022/01/10 09:11:49;;;;;;;54.47;27.05;;;;;;;-0.89;72.84;101179.97;5087866;28;20494;-53
2022/01/10 09:14:15;;;;;;;48.35;24.02;;;;;;;-0.94;72.93;101189.25;5077244;28;20072;-54
2022/01/10 09:16:41;;;;;;;37.50;21.52;;;;;;;-0.98;73.83;101189.09;5090631;28;20454;-55
2022/01/10 09:19:07;;;;;;;39.65;22.23;;;;;;;-0.85;73.40;101202.50;5093324;28;20032;-54
2022/01/10 09:21:32;;;;;;;37.25;20.45;;;;;;;-0.76;73.03;101201.97;5092034;28;20044;-54
2022/01/10 09:23:58;;;;;;;35.92;19.92;;;;;;;-0.72;73.06;101211.56;5082605;28;20036;-55
2022/01/10 09:26:24;;;;;;;32.60;19.95;;;;;;;-0.57;72.72;101211.25;5093121;28;20032;-55
2022/01/10 09:28:49;;;;;;;35.47;19.77;;;;;;;-0.52;72.48;101213.22;5093660;28;20036;-52
2022/01/10 09:31:15;;;;;;;36.90;22.30;;;;;;;-0.51;72.49;101212.38;5093257;28;20043;-51
2022/01/10 09:33:42;;;;;;;33.03;19.95;;;;;;;-0.47;72.70;101221.13;5089473;28;20032;-54
2022/01/10 09:36:07;;;;;;;33.42;20.35;;;;;;;-0.35;72.27;101221.56;5093110;28;20131;-53
2022/01/10 09:38:33;;;;;;;31.30;19.67;;;;;;;-0.25;71.78;101226.22;5092935;28;20038;-54
2022/01/10 09:40:59;;;;;;;34.55;22.05;;;;;;;-0.19;71.32;101220.41;5083382;28;20038;-54
2022/01/10 09:43:24;;;;;;;36.53;22.90;;;;;;;-0.16;70.91;101236.03;5083061;28;20370;-54
2022/01/10 09:45:55;;;;;;;34.38;20.30;;;;;;;-0.07;70.75;101236.31;5091409;28;20044;-54
2022/01/10 09:48:21;;;;;;;34.75;21.80;;;;;;;-0.08;70.07;101246.59;5093988;28;20039;-56
2022/01/10 09:50:47;;;;;;;30.20;19.90;;;;;;;0.04;70.30;101244.47;5091796;28;20379;-53
2022/01/10 09:53:17;;;;;;;36.92;23.52;;;;;;;0.07;70.29;101254.88;5092854;28;20043;-56
2022/01/10 09:55:43;;;;;;;36.58;23.75;;;;;;;0.15;69.67;101255.16;5093192;28;20039;-54
2022/01/10 09:58:09;;;;;;;49.83;31.40;;;;;;;0.24;69.60;101264.13;5092926;28;20036;-56
2022/01/10 10:00:35;;;;;;;40.33;24.30;;;;;;;0.15;68.99;101268.06;5092267;28;20032;-53
2022/01/10 10:03:01;;;;;;;43.33;27.75;;;;;;;0.22;69.64;101280.38;5092762;28;20028;-54
2022/01/10 10:05:26;;;;;;;36.08;24.40;;;;;;;0.30;69.28;101276.38;5093160;28;20065;-52
2022/01/10 10:07:52;;;;;;;36.22;23.75;;;;;;;0.33;69.29;101279.06;5092334;28;20040;-56
2022/01/10 10:10:18;;;;;;;33.47;22.40;;;;;;;0.31;69.42;101290.16;5088014;28;20043;-55
2022/01/10 10:12:49;;;;;;;34.30;21.80;;;;;;;0.37;68.99;101290.38;5091574;28;20043;-54
2022/01/10 10:15:17;;;;;;;33.08;20.60;;;;;;;0.46;69.18;101288.97;5084530;28;20028;-52
2022/01/10 10:17:44;;;;;;;31.08;19.73;;;;;;;0.52;68.77;101300.34;5073612;28;20046;-53
2022/01/10 10:20:12;;;;;;;30.05;19.80;;;;;;;0.60;68.76;101298.91;5072506;28;20024;-53
2022/01/10 10:22:41;;;;;;;31.40;17.52;;;;;;;0.63;68.83;101312.81;5072472;28;20533;-55
2022/01/10 10:25:09;;;;;;;29.17;17.95;;;;;;;0.65;68.17;101316.34;5072337;28;20071;-54
2022/01/10 10:27:43;;;;;;;29.48;17.27;;;;;;;0.67;68.42;101316.38;5077256;28;20033;-54
2022/01/10 10:30:14;;;;;;;27.88;17.88;;;;;;;0.67;67.86;101319.84;5089263;28;20034;-53
2022/01/10 10:32:40;;;;;;;26.23;15.60;;;;;;;0.71;68.21;101332.06;5092959;28;20039;-52
2022/01/10 10:35:08;;;;;;;28.45;18.60;;;;;;;0.76;67.87;101329.66;5093190;28;20063;-54
2022/01/10 10:37:38;;;;;;;28.85;18.33;;;;;;;0.71;67.98;101329.47;5091788;28;20082;-53
2022/01/10 10:40:08;;;;;;;30.98;19.23;;;;;;;0.82;67.91;101341.91;5081549;28;20504;-55
2022/01/10 10:42:34;;;;;;;24.60;16.33;;;;;;;0.81;68.13;101345.31;5073234;28;20039;-54
2022/01/10 10:45:07;;;;;;;26.95;16.70;;;;;;;0.85;67.73;101352.34;5073055;28;20029;-54
2022/01/10 10:47:35;;;;;;;28.35;18.85;;;;;;;0.79;67.68;101355.59;5073075;28;20061;-54
2022/01/10 10:50:01;;;;;;;31.85;17.60;;;;;;;0.75;67.38;101351.16;5072956;28;20037;-54
2022/01/10 10:52:32;;;;;;;26.20;17.08;;;;;;;0.80;67.36;101353.88;5072631;28;20025;-53
2022/01/10 10:55:21;;;;;;;26.90;17.45;;;;;;;0.78;67.29;101351.25;5077860;28;20043;-53
2022/01/10 10:57:48;;;;;;;33.00;18.63;;;;;;;0.66;67.38;101358.59;5072387;28;20040;-52
2022/01/10 11:00:15;;;;;;;30.05;17.98;;;;;;;0.68;66.84;101349.22;5078784;28;20036;-53
2022/01/10 11:02:42;;;;;;;29.42;18.63;;;;;;;0.74;67.34;101365.78;5071326;28;20089;-51
2022/01/10 11:05:08;;;;;;;31.42;18.33;;;;;;;0.74;67.33;101362.34;5090635;28;20054;-53
2022/01/10 11:07:36;;;;;;;25.90;15.48;;;;;;;0.82;66.64;101372.94;5092835;28;20472;-52
2022/01/10 11:10:10;;;;;;;25.77;15.70;;;;;;;0.88;66.57;101378.34;5079636;28;20068;-54
2022/01/10 11:12:41;;;;;;;24.08;14.75;;;;;;;0.85;66.74;101378.22;5089806;28;20085;-51